Time;durP1;ratioP1;P1;durP2;ratioP2;P2;SDS_P1;SDS_P2;PMS_P1;PMS_P2;Temp;Humidity;BMP_temperature;BMP_pressure;BME280_temperature;BME280_humidity;BME280_pressure;Samples;Min_cycle;Max_cycle;Signal;HPM_P1;HPM_P2
2022/10/10 00:02:22;;;;;;;2.50;1.58;;;9.70;99.90;;;9.77;100.00;100992.84;5230312;28;20041;-70
2022/10/10 00:04:54;;;;;;;1.80;1.27;;;9.70;99.90;;;9.75;100.00;100997.13;5248350;28;20052;-70
2022/10/10 00:07:26;;;;;;;2.67;1.50;;;9.70;99.90;;;9.72;100.00;100984.00;5230226;28;20044;-70
2022/10/10 00:10:00;;;;;;;2.53;1.35;;;9.70;99.90;;;9.69;100.00;100990.78;5247886;28;20047;-70
2022/10/10 00:12:32;;;;;;;2.85;1.63;;;9.60;99.90;;;9.69;100.00;100988.19;5230102;28;20509;-70
2022/10/10 00:15:06;;;;;;;2.22;1.30;;;9.60;99.90;;;9.66;100.00;100988.94;5248090;28;20053;-70
2022/10/10 00:17:39;;;;;;;3.55;1.60;;;9.60;99.90;;;9.65;100.00;100986.25;5248765;28;20044;-70
2022/10/10 00:20:14;;;;;;;2.60;1.48;;;9.60;99.90;;;9.62;100.00;100991.34;5247340;28;20337;-71
2022/10/10 00:22:46;;;;;;;1.83;1.17;;;9.50;99.90;;;9.59;100.00;100991.25;5234491;28;20041;-70
2022/10/10 00:25:20;;;;;;;2.35;1.10;;;9.50;99.90;;;9.55;100.00;100990.22;5228101;28;20047;-70
2022/10/10 00:27:52;;;;;;;2.83;1.50;;;9.50;99.90;;;9.51;100.00;100983.09;5227974;28;20037;-70
2022/10/10 00:30:24;;;;;;;1.90;1.30;;;9.50;99.90;;;9.47;100.00;100984.69;5226406;28;20506;-70
2022/10/10 00:32:58;;;;;;;2.15;1.30;;;9.40;99.90;;;9.46;100.00;100990.72;5228108;28;20045;-70
2022/10/10 00:35:31;;;;;;;2.10;1.30;;;9.40;99.90;;;9.40;100.00;100980.06;5226906;28;20051;-70
2022/10/10 00:38:04;;;;;;;2.42;1.20;;;9.30;99.90;;;9.38;100.00;100986.88;5227135;28;20047;-70
2022/10/10 00:40:45;;;;;;;2.03;1.67;;;9.30;99.90;;;9.35;100.00;100986.75;5226630;28;20521;-70
2022/10/10 00:43:19;;;;;;;2.28;1.45;;;9.30;99.90;;;9.33;100.00;100982.34;5231437;28;20045;-70
2022/10/10 00:45:52;;;;;;;2.80;2.00;;;9.30;99.90;;;9.30;100.00;100979.59;5247486;28;20409;-70
2022/10/10 00:48:28;;;;;;;2.70;1.63;;;9.20;99.90;;;9.28;100.00;100981.25;5247321;28;20041;-71
2022/10/10 00:51:04;;;;;;;3.22;1.35;;;9.20;99.90;;;9.28;100.00;100987.31;5247378;28;20054;-71
2022/10/10 00:53:41;;;;;;;2.00;1.25;;;9.20;99.90;;;9.30;100.00;100976.97;5229612;28;20059;-70
2022/10/10 00:56:18;;;;;;;4.20;1.60;;;9.20;99.90;;;9.30;100.00;100976.97;5247503;28;20044;-70
2022/10/10 00:58:54;;;;;;;2.95;1.20;;;9.20;99.90;;;9.28;100.00;100976.03;5247027;28;20064;-71
2022/10/10 01:01:27;;;;;;;2.17;1.48;;;9.20;99.90;;;9.26;100.00;100975.97;5247293;28;20521;-71
2022/10/10 01:04:02;;;;;;;2.72;1.38;;;9.20;99.90;;;9.25;100.00;100979.38;5247112;28;20048;-71
2022/10/10 01:06:34;;;;;;;2.72;1.70;;;9.20;99.90;;;9.23;100.00;100981.03;5247289;28;20441;-71
2022/10/10 01:09:06;;;;;;;2.03;0.98;;;9.20;99.90;;;9.20;100.00;100975.72;5246466;28;20055;-70
2022/10/10 01:11:48;;;;;;;1.88;1.20;;;9.10;99.90;;;9.17;100.00;100970.38;5247074;28;20075;-70
2022/10/10 01:14:35;;;;;;;3.83;1.75;;;9.10;99.90;;;9.15;100.00;100969.41;5228953;28;20064;-71
2022/10/10 01:17:16;;;;;;;1.95;1.20;;;9.10;99.90;;;9.14;100.00;100965.03;5228936;28;20048;-70
2022/10/10 01:20:41;;;;;;;4.05;1.65;;;9.10;99.90;;;9.12;100.00;100964.94;5239526;22;20033;-74
2022/10/10 01:24:16;;;;;;;2.70;1.60;;;9.10;99.90;;;9.09;100.00;100964.84;5222980;28;20381;-72
2022/10/10 01:27:28;;;;;;;2.55;1.27;;;9.00;99.90;;;9.05;100.00;100965.50;5201904;28;20067;-74
2022/10/10 01:30:07;;;;;;;3.05;1.33;;;9.00;99.90;;;9.04;100.00;100962.84;5225033;28;20072;-72
2022/10/10 01:32:46;;;;;;;2.00;1.67;;;9.00;99.90;;;9.03;100.00;100958.47;5226742;28;20415;-73
2022/10/10 01:35:34;;;;;;;3.67;1.45;;;9.00;99.90;;;9.01;100.00;100962.75;5208898;28;20523;-74
2022/10/10 01:38:22;;;;;;;2.05;1.20;;;9.00;99.90;;;8.98;100.00;100959.16;5175807;28;20041;-72
2022/10/10 01:41:04;;;;;;;1.73;1.15;;;9.00;99.90;;;9.00;100.00;100955.72;5208285;28;20052;-72
2022/10/10 01:43:37;;;;;;;1.80;1.20;;;8.90;99.90;;;8.97;100.00;100946.97;5226211;28;20051;-74
2022/10/10 01:46:13;;;;;;;1.95;1.33;;;8.90;99.90;;;8.93;100.00;100945.09;5208658;28;20139;-74
2022/10/10 01:48:49;;;;;;;1.10;1.00;;;8.90;99.90;;;8.92;100.00;100953.69;5191048;28;20041;-73
2022/10/10 01:51:46;;;;;;;1.85;1.17;;;8.90;99.90;;;8.92;100.00;100953.69;5208552;28;20053;-72
2022/10/10 01:54:35;;;;;;;1.85;1.05;;;8.90;99.90;;;8.92;100.00;100942.41;5206170;28;20057;-73
2022/10/10 01:57:22;;;;;;;4.07;1.30;;;8.90;99.90;;;8.91;100.00;100945.81;5191659;28;20103;-72
2022/10/10 02:00:06;;;;;;;1.83;1.15;;;8.80;99.90;;;8.89;100.00;100932.78;5207523;28;20090;-73
2022/10/10 02:02:52;;;;;;;2.78;1.25;;;8.80;99.90;;;8.88;100.00;100936.19;5226148;28;20041;-74
2022/10/10 02:05:31;;;;;;;1.95;1.30;;;8.80;99.90;;;8.87;100.00;100934.44;5207626;28;20097;-74
2022/10/10 02:08:08;;;;;;;2.58;1.30;;;8.80;99.90;;;8.87;100.00;100931.81;5175596;28;20045;-73
2022/10/10 02:10:47;;;;;;;2.25;1.20;;;8.80;99.90;;;8.87;100.00;100930.94;5207710;28;20043;-73
2022/10/10 02:13:21;;;;;;;2.00;1.15;;;8.80;99.90;;;8.84;100.00;100923.88;5225926;28;20510;-74
2022/10/10 02:15:58;;;;;;;2.80;1.50;;;8.80;99.90;;;8.87;100.00;100926.63;5207935;28;20128;-73
2022/10/10 02:18:35;;;;;;;3.00;1.30;;;8.80;99.90;;;8.89;100.00;100921.47;5225442;28;20071;-72
2022/10/10 02:21:09;;;;;;;2.42;1.42;;;8.80;99.90;;;8.91;100.00;100920.72;5191619;28;20051;-74
2022/10/10 02:23:45;;;;;;;2.55;1.45;;;8.80;99.90;;;8.91;100.00;100925.03;5191657;28;20057;-72
2022/10/10 02:26:19;;;;;;;2.22;1.30;;;8.90;99.90;;;8.92;100.00;100924.19;5207537;28;20069;-74
2022/10/10 02:28:57;;;;;;;1.45;1.10;;;8.90;99.90;;;8.93;100.00;100926.91;5224960;28;20127;-73
2022/10/10 02:31:35;;;;;;;1.98;1.30;;;8.90;99.90;;;8.95;100.00;100921.75;5207749;28;20060;-72
2022/10/10 02:34:13;;;;;;;2.55;1.30;;;8.90;99.90;;;8.97;100.00;100915.78;5225360;28;20049;-74
2022/10/10 02:36:51;;;;;;;3.05;1.60;;;8.90;99.90;;;9.01;100.00;100922.03;5207559;28;20049;-74
2022/10/10 02:39:28;;;;;;;3.42;1.40;;;8.90;99.90;;;9.04;100.00;100913.44;5207152;28;20059;-74
2022/10/10 02:42:00;;;;;;;1.40;1.15;;;9.00;99.90;;;9.07;100.00;100909.28;5191303;28;20068;-74
2022/10/10 02:44:34;;;;;;;1.85;1.40;;;9.00;99.90;;;9.12;100.00;100915.53;5191082;28;20140;-73
2022/10/10 02:47:06;;;;;;;1.90;1.30;;;9.00;99.90;;;9.18;100.00;100909.72;5207206;28;20134;-74
2022/10/10 02:49:41;;;;;;;3.15;1.42;;;9.10;99.90;;;9.24;100.00;100909.97;5224871;28;20119;-74
2022/10/10 02:52:15;;;;;;;;;;;9.20;99.90;;;9.28;100.00;100911.00;5207950;28;20041;-72
2022/10/10 02:54:47;;;;;;;1.67;1.08;;;9.20;99.90;;;9.28;100.00;100911.88;5207427;28;19921;-74
2022/10/10 02:57:20;;;;;;;1.65;1.05;;;9.20;99.90;;;9.28;100.00;100906.69;5225217;28;20044;-73
2022/10/10 02:59:52;;;;;;;2.30;1.13;;;9.20;99.90;;;9.32;100.00;100911.16;5207226;28;20179;-74
2022/10/10 03:02:24;;;;;;;2.53;1.50;;;9.20;99.90;;;9.37;100.00;100907.06;5225220;28;20120;-74
2022/10/10 03:04:58;;;;;;;2.10;1.42;;;9.30;99.90;;;9.40;100.00;100902.00;5225188;28;20040;-72
2022/10/10 03:07:30;;;;;;;2.28;1.30;;;9.30;99.90;;;9.42;100.00;100897.72;5193093;28;20136;-75
2022/10/10 03:10:03;;;;;;;2.85;1.17;;;9.30;99.90;;;9.46;100.00;100902.25;5228505;28;20530;-74
2022/10/10 03:12:36;;;;;;;1.98;1.40;;;9.40;99.90;;;9.46;100.00;100906.56;5229453;28;20059;-72
2022/10/10 03:15:09;;;;;;;2.15;1.52;;;9.40;99.90;;;9.44;100.00;100898.66;5211386;28;20420;-72
2022/10/10 03:17:41;;;;;;;2.58;1.40;;;9.40;99.90;;;9.46;100.00;100898.75;5211477;28;20069;-74
2022/10/10 03:20:15;;;;;;;2.05;1.33;;;9.40;99.90;;;9.48;100.00;100895.38;5211240;28;20045;-73
2022/10/10 03:22:47;;;;;;;2.20;1.88;;;9.40;99.90;;;9.52;100.00;100899.91;5178620;28;20415;-74
2022/10/10 03:25:20;;;;;;;2.08;1.50;;;9.40;99.90;;;9.55;100.00;100898.25;5229025;28;20041;-74
2022/10/10 03:27:52;;;;;;;2.55;1.25;;;9.50;99.90;;;9.59;100.00;100895.84;5211423;28;20339;-74
2022/10/10 03:30:24;;;;;;;2.22;1.33;;;9.50;99.90;;;9.61;100.00;100901.09;5228317;28;20143;-74
2022/10/10 03:32:57;;;;;;;2.55;1.40;;;9.50;99.90;;;9.65;100.00;100897.75;5228842;28;20124;-72
2022/10/10 03:35:30;;;;;;;5.55;1.50;;;9.60;99.90;;;9.68;100.00;100900.50;5194643;28;20098;-72
2022/10/10 03:38:03;;;;;;;3.67;1.50;;;9.60;99.90;;;9.72;100.00;100899.81;5211152;28;20048;-74
2022/10/10 03:40:41;;;;;;;3.60;1.60;;;9.70;99.90;;;9.77;100.00;100898.25;5177854;28;20052;-72
2022/10/10 03:43:15;;;;;;;2.22;1.63;;;9.70;99.90;;;9.79;100.00;100897.50;5228954;28;20470;-74
2022/10/10 03:45:47;;;;;;;3.80;1.38;;;9.80;99.90;;;9.83;100.00;100900.22;5210711;28;20068;-72
2022/10/10 03:48:19;;;;;;;2.65;1.50;;;9.80;99.90;;;9.83;100.00;100902.81;5228333;28;20091;-74
2022/10/10 03:50:53;;;;;;;3.40;1.63;;;9.80;99.90;;;9.83;100.00;100895.88;5193768;28;20059;-74
2022/10/10 03:53:25;;;;;;;2.15;1.50;;;9.80;99.90;;;9.84;100.00;100905.47;5228484;28;20053;-73
2022/10/10 03:55:57;;;;;;;2.05;1.40;;;9.80;99.90;;;9.82;100.00;100901.94;5194305;28;20063;-72
2022/10/10 03:58:29;;;;;;;1.98;1.23;;;9.80;99.90;;;9.81;100.00;100899.28;5210443;28;20055;-73
2022/10/10 04:01:03;;;;;;;1.50;1.30;;;9.80;99.90;;;9.79;100.00;100900.09;5228284;28;20083;-74
2022/10/10 04:03:35;;;;;;;2.47;1.30;;;9.80;99.90;;;9.78;100.00;100900.94;5194268;28;20140;-74
2022/10/10 04:06:09;;;;;;;2.83;1.60;;;9.70;99.90;;;9.77;100.00;100898.25;5210143;28;20045;-72
2022/10/10 04:08:41;;;;;;;2.90;1.45;;;9.70;99.90;;;9.75;100.00;100899.91;5193376;28;20037;-73
2022/10/10 04:11:14;;;;;;;3.72;1.33;;;9.70;99.90;;;9.74;100.00;100893.81;5210354;28;20048;-72
2022/10/10 04:13:46;;;;;;;2.10;1.40;;;9.70;99.90;;;9.73;100.00;100898.97;5210325;28;20063;-74
2022/10/10 04:16:18;;;;;;;2.22;1.35;;;9.70;99.90;;;9.71;100.00;100898.00;5193644;28;20107;-72
2022/10/10 04:18:50;;;;;;;2.08;1.42;;;9.70;99.90;;;9.68;100.00;100903.09;5193150;28;20545;-72
2022/10/10 04:21:24;;;;;;;2.13;1.38;;;9.60;99.90;;;9.63;100.00;100887.28;5193465;28;20282;-72
2022/10/10 04:23:56;;;;;;;2.05;1.20;;;9.60;99.90;;;9.63;100.00;100892.50;5228048;28;20048;-73
2022/10/10 04:26:28;;;;;;;2.50;1.88;;;9.50;99.90;;;9.64;100.00;100896.88;5227870;28;20060;-72
2022/10/10 04:29:00;;;;;;;3.03;1.92;;;9.60;99.90;;;9.67;100.00;100890.94;5193270;28;20514;-74
2022/10/10 04:31:33;;;;;;;5.20;1.63;;;9.60;99.90;;;9.70;100.00;100888.44;5193565;28;20049;-72
2022/10/10 04:34:05;;;;;;;2.83;1.60;;;9.60;99.90;;;9.75;100.00;100894.72;5177372;28;20047;-74
2022/10/10 04:36:39;;;;;;;1.70;1.52;;;9.70;99.90;;;9.77;100.00;100888.72;5209631;28;20049;-72
2022/10/10 04:39:11;;;;;;;2.83;1.45;;;9.70;99.90;;;9.79;100.00;100892.31;5209237;28;20056;-74
2022/10/10 04:41:43;;;;;;;2.83;1.20;;;9.80;99.90;;;9.79;100.00;100891.41;5209395;28;20065;-73
2022/10/10 04:44:16;;;;;;;3.13;1.67;;;9.80;99.90;;;9.76;100.00;100891.28;5227636;28;20041;-74
2022/10/10 04:46:48;;;;;;;2.40;1.60;;;9.70;99.90;;;9.74;100.00;100898.16;5193396;28;20084;-72
2022/10/10 04:49:20;;;;;;;1.67;1.20;;;9.70;99.90;;;9.71;100.00;100890.19;5226958;28;20159;-73
2022/10/10 04:51:54;;;;;;;2.20;1.60;;;9.70;99.90;;;9.73;100.00;100893.78;5209615;28;20059;-74
2022/10/10 04:54:28;;;;;;;3.50;1.45;;;9.60;99.90;;;9.74;100.00;100892.94;5209650;28;20519;-73
2022/10/10 04:57:00;;;;;;;4.00;1.58;;;9.70;99.90;;;9.75;100.00;100892.09;5193121;28;20045;-71
2022/10/10 04:59:32;;;;;;;2.92;1.40;;;9.70;99.90;;;9.76;100.00;100891.28;5227025;28;20051;-74
2022/10/10 05:02:04;;;;;;;3.08;1.80;;;9.70;99.90;;;9.77;100.00;100893.03;5209450;28;20588;-74
2022/10/10 05:04:37;;;;;;;4.07;2.40;;;9.80;99.90;;;9.80;100.00;100893.19;5227001;28;20412;-73
2022/10/10 05:07:11;;;;;;;2.67;1.38;;;9.80;99.90;;;9.82;100.00;100896.72;5227074;28;20049;-74
2022/10/10 05:09:43;;;;;;;2.33;1.58;;;9.80;99.90;;;9.82;100.00;100893.25;5208976;28;20404;-74
2022/10/10 05:12:15;;;;;;;3.15;1.90;;;9.80;99.90;;;9.77;100.00;100888.72;5227042;28;20500;-74
2022/10/10 05:14:47;;;;;;;4.03;1.50;;;9.70;99.90;;;9.74;100.00;100893.81;5209085;28;20159;-73
2022/10/10 05:17:19;;;;;;;1.92;1.30;;;9.70;99.90;;;9.69;100.00;100884.94;5226831;28;20044;-74
2022/10/10 05:19:52;;;;;;;2.42;1.75;;;9.70;99.90;;;9.66;100.00;100886.56;5226523;28;20456;-74
2022/10/10 05:22:26;;;;;;;2.92;1.30;;;9.60;99.90;;;9.62;100.00;100882.91;5226755;28;20044;-74
2022/10/10 05:24:58;;;;;;;3.58;1.73;;;9.60;99.90;;;9.58;100.00;100880.13;5192662;28;20128;-74
2022/10/10 05:27:31;;;;;;;3.80;1.70;;;9.50;99.90;;;9.59;100.00;100885.41;5208788;28;20045;-74
2022/10/10 05:30:04;;;;;;;2.78;2.10;;;9.60;99.90;;;9.60;100.00;100889.78;5208011;28;20401;-74
2022/10/10 05:32:36;;;;;;;4.00;1.60;;;9.60;99.90;;;9.60;100.00;100897.59;5192416;28;20045;-73
2022/10/10 05:35:09;;;;;;;2.33;1.40;;;9.60;99.90;;;9.61;100.00;100895.88;5208773;28;20049;-73
2022/10/10 05:37:43;;;;;;;2.10;1.52;;;9.60;99.90;;;9.59;100.00;100892.34;5175778;28;20060;-73
2022/10/10 05:40:16;;;;;;;2.70;2.10;;;9.60;99.90;;;9.56;100.00;100898.28;5191200;28;20432;-73
2022/10/10 05:42:49;;;;;;;2.20;1.50;;;9.50;99.90;;;9.52;100.00;100889.50;5207610;28;20048;-73
2022/10/10 05:45:21;;;;;;;1.80;1.30;;;9.50;99.90;;;9.50;100.00;100904.13;5175470;28;20049;-73
2022/10/10 05:47:53;;;;;;;2.90;1.55;;;9.50;99.90;;;9.46;100.00;100902.25;5207892;28;20053;-74
2022/10/10 05:50:34;;;;;;;2.55;1.60;;;9.40;99.90;;;9.42;100.00;100902.06;5225058;28;20048;-74
2022/10/10 05:53:07;;;;;;;2.63;1.60;;;9.40;99.90;;;9.38;100.00;100892.34;5207171;28;20144;-74
2022/10/10 05:55:39;;;;;;;2.28;1.98;;;9.30;99.90;;;9.38;100.00;100897.53;5207123;28;20393;-74
2022/10/10 05:58:13;;;;;;;6.05;2.05;;;9.30;99.90;;;9.39;100.00;100891.50;5206987;28;20140;-74
2022/10/10 06:00:47;;;;;;;2.75;1.52;;;9.30;99.90;;;9.40;100.00;100891.59;5224624;28;20041;-74
2022/10/10 06:03:19;;;;;;;2.13;1.30;;;9.40;99.90;;;9.41;100.00;100888.16;5206983;28;20059;-72
2022/10/10 06:05:52;;;;;;;2.55;1.25;;;9.40;99.90;;;9.44;100.00;100896.06;5207161;28;20052;-70
2022/10/10 06:08:26;;;;;;;2.53;1.55;;;9.40;99.90;;;9.45;100.00;100894.34;5190387;28;20061;-70
2022/10/10 06:11:06;;;;;;;2.47;1.92;;;9.40;99.90;;;9.45;100.00;100895.28;5224870;28;20423;-70
2022/10/10 06:13:39;;;;;;;2.47;1.80;;;9.40;99.90;;;9.46;100.00;100897.03;5207327;28;20413;-70
2022/10/10 06:16:11;;;;;;;1.42;1.30;;;9.40;99.90;;;9.46;100.00;100886.63;5207747;28;20041;-70
2022/10/10 06:18:44;;;;;;;2.78;1.80;;;9.40;99.90;;;9.47;100.00;100888.41;5206450;28;20715;-69
2022/10/10 06:21:18;;;;;;;2.60;1.50;;;9.40;99.90;;;9.49;100.00;100891.06;5224908;28;20041;-70
2022/10/10 06:23:52;;;;;;;2.60;1.40;;;9.50;99.90;;;9.55;100.00;100895.63;5206688;28;20072;-70
2022/10/10 06:26:24;;;;;;;3.60;1.70;;;9.50;99.90;;;9.62;100.00;100893.34;5206824;28;20045;-70
2022/10/10 06:28:56;;;;;;;2.88;1.67;;;9.50;99.90;;;9.69;100.00;100900.56;5206544;28;20040;-70
2022/10/10 06:31:28;;;;;;;2.35;1.50;;;9.60;99.90;;;9.76;100.00;100894.75;5224263;28;20059;-70
2022/10/10 06:34:00;;;;;;;5.05;2.30;;;9.70;99.90;;;9.80;100.00;100903.59;5206501;28;20411;-70
2022/10/10 06:36:32;;;;;;;1.92;1.75;;;9.80;99.90;;;9.86;100.00;100897.75;5190098;28;20333;-68
2022/10/10 06:39:06;;;;;;;4.15;1.80;;;9.80;99.90;;;10.32;100.00;100900.44;5223611;28;20045;-70
2022/10/10 06:41:38;;;;;;;3.42;2.10;;;10.00;99.90;;;11.38;100.00;100903.31;5204856;28;20370;-68
2022/10/10 06:44:17;;;;;;;2.63;1.60;;;10.70;99.90;;;12.76;100.00;100900.56;5206207;28;20041;-69
2022/10/10 06:46:50;;;;;;;2.55;1.52;;;11.70;99.90;;;14.21;100.00;100900.69;5206091;28;20053;-68
2022/10/10 06:49:23;;;;;;;4.70;1.80;;;12.80;99.90;;;15.62;97.62;100892.91;5189571;28;20516;-70
2022/10/10 06:51:55;;;;;;;4.22;1.70;;;14.00;99.90;;;16.94;89.51;100899.06;5223619;28;20049;-68
2022/10/10 06:54:28;;;;;;;2.83;1.55;;;15.20;99.90;;;18.06;82.74;100900.00;5224289;28;20048;-69
2022/10/10 06:57:01;;;;;;;5.03;1.80;;;16.30;99.70;;;19.10;77.47;100903.06;5225019;28;20037;-69
2022/10/10 06:59:33;;;;;;;3.53;1.55;;;17.30;97.20;;;20.04;72.69;100910.16;5224062;28;20524;-69
2022/10/10 07:02:06;;;;;;;3.78;1.60;;;18.20;94.60;;;20.85;69.75;100910.72;5224258;28;20041;-68
2022/10/10 07:04:39;;;;;;;3.42;1.65;;;19.00;92.50;;;21.51;67.20;100906.78;5206281;28;20156;-69
2022/10/10 07:07:11;;;;;;;2.75;1.70;;;19.60;90.40;;;22.16;64.68;100924.75;5223995;28;20523;-68
2022/10/10 07:09:44;;;;;;;3.60;1.45;;;20.30;86.80;;;22.71;63.25;100916.16;5205545;28;20136;-69
2022/10/10 07:12:17;;;;;;;2.70;1.60;;;20.80;83.60;;;23.14;60.92;100918.22;5173427;28;20087;-70
2022/10/10 07:14:49;;;;;;;2.90;1.60;;;21.20;79.30;;;23.28;60.13;100912.72;5197126;28;20508;-69
2022/10/10 07:17:22;;;;;;;3.25;1.58;;;21.40;77.40;;;23.31;59.82;100925.06;5180981;28;20049;-70
2022/10/10 07:19:54;;;;;;;2.80;1.52;;;21.50;75.60;;;23.31;59.56;100920.63;5289186;22;20048;-56
2022/10/10 07:22:27;;;;;;;3.00;1.50;;;21.60;74.90;;;22.87;59.46;100922.16;5226650;28;20045;-55
2022/10/10 07:25:01;;;;;;;2.15;1.45;;;21.30;73.80;;;22.11;60.74;100928.38;5223335;28;20119;-55
2022/10/10 07:27:33;;;;;;;4.65;1.90;;;20.80;74.10;;;21.65;62.17;100929.66;5223800;28;20095;-55
2022/10/10 07:30:15;;;;;;;2.67;1.60;;;20.40;75.40;;;20.81;63.75;100929.31;5221201;28;20095;-55
2022/10/10 07:32:47;;;;;;;5.85;2.20;;;19.80;76.40;;;19.68;66.57;100930.44;5213752;28;20065;-56
2022/10/10 07:35:20;;;;;;;3.60;1.52;;;19.00;78.20;;;18.85;69.02;100933.84;5223021;28;20076;-55
2022/10/10 07:37:54;;;;;;;2.97;2.03;;;18.40;80.40;;;18.21;71.37;100934.41;5224413;28;20045;-55
2022/10/10 07:40:28;;;;;;;3.75;2.15;;;17.80;82.70;;;17.65;73.79;100932.22;5223869;28;20516;-55
2022/10/10 07:43:00;;;;;;;3.15;2.25;;;17.20;85.30;;;17.29;75.71;100943.31;5223793;28;20066;-55
2022/10/10 07:45:35;;;;;;;4.03;1.73;;;16.80;87.80;;;17.23;76.96;100935.34;5224223;28;20049;-55
2022/10/10 07:48:07;;;;;;;3.58;1.80;;;16.60;90.10;;;17.70;77.19;100945.44;5224196;28;20053;-55
2022/10/10 07:50:41;;;;;;;3.67;2.15;;;16.70;91.10;;;18.62;74.53;100952.19;5221069;28;20442;-55
2022/10/10 07:53:13;;;;;;;3.08;1.67;;;17.10;91.00;;;19.42;72.50;100943.63;5221519;28;20048;-55
2022/10/10 07:55:47;;;;;;;7.15;2.50;;;17.70;90.60;;;20.42;69.25;100948.88;5227703;28;20041;-55
2022/10/10 07:58:19;;;;;;;4.75;2.38;;;18.50;88.70;;;21.28;66.63;100941.41;5227574;28;20394;-55
2022/10/10 08:00:51;;;;;;;4.70;2.03;;;19.20;85.60;;;21.75;65.04;100938.41;5227270;28;20049;-55
2022/10/10 08:03:23;;;;;;;4.68;2.10;;;19.70;83.10;;;22.09;65.74;100940.78;5227616;28;20476;-56
2022/10/10 08:05:55;;;;;;;3.28;1.77;;;20.20;83.30;;;22.49;63.31;100943.88;5227306;28;20044;-55
2022/10/10 08:08:27;;;;;;;4.85;2.10;;;20.70;80.20;;;22.62;62.28;100949.91;5227191;28;20056;-56
2022/10/10 08:11:01;;;;;;;3.63;1.85;;;20.90;78.30;;;22.86;62.06;100952.31;5227023;28;20528;-55
2022/10/10 08:13:34;;;;;;;3.22;1.90;;;21.10;77.70;;;23.07;61.74;100947.59;5227370;28;20532;-55
2022/10/10 08:16:06;;;;;;;3.20;1.90;;;21.30;77.00;;;23.13;60.72;100940.41;5226347;28;20124;-55
2022/10/10 08:18:38;;;;;;;4.25;2.10;;;21.40;75.20;;;22.89;61.78;100940.78;5226863;28;20114;-54
2022/10/10 08:21:14;;;;;;;4.75;2.03;;;21.30;76.40;;;22.64;61.94;100945.47;5227387;28;20037;-54
2022/10/10 08:23:46;;;;;;;4.20;1.85;;;21.20;75.30;;;22.34;62.70;100949.38;5209560;28;20049;-54
2022/10/10 08:26:19;;;;;;;4.10;1.80;;;21.00;75.80;;;22.11;63.72;100952.28;5227135;28;20049;-54
2022/10/10 08:28:51;;;;;;;4.55;2.28;;;20.90;76.70;;;21.94;64.17;100949.75;5226588;28;20547;-54
2022/10/10 08:31:23;;;;;;;6.47;2.38;;;20.70;77.00;;;21.73;65.60;100947.28;5226871;28;20045;-54
2022/10/10 08:33:57;;;;;;;6.13;2.13;;;20.50;78.00;;;21.69;65.96;100951.72;5227203;28;20045;-54
2022/10/10 08:36:28;;;;;;;6.88;2.65;;;20.50;78.20;;;21.66;66.99;100949.13;5226864;28;20417;-54
2022/10/10 08:39:01;;;;;;;5.47;2.08;;;20.60;79.50;;;21.69;66.89;100954.38;5226452;28;20040;-54
2022/10/10 08:41:40;;;;;;;4.57;2.00;;;20.70;79.20;;;21.63;66.87;100949.13;5226661;28;20460;-54
2022/10/10 08:44:19;;;;;;;4.57;2.30;;;20.70;78.90;;;21.28;67.94;100942.31;5226898;28;20501;-54
2022/10/10 08:46:56;;;;;;;2.70;1.52;;;20.50;79.20;;;20.91;69.76;100936.31;5226825;28;20045;-53
2022/10/10 08:49:34;;;;;;;5.93;2.28;;;20.30;80.60;;;20.73;71.17;100937.28;5226332;28;20048;-54
2022/10/10 08:52:16;;;;;;;3.08;1.70;;;20.20;81.80;;;20.66;71.89;100945.28;5226671;28;20502;-54
2022/10/10 08:54:49;;;;;;;4.28;1.80;;;20.10;82.40;;;20.58;72.12;100940.88;5226967;28;20536;-54
2022/10/10 08:57:30;;;;;;;4.93;1.98;;;20.00;82.60;;;20.46;72.37;100940.03;5226512;28;20544;-54
2022/10/10 09:00:08;;;;;;;6.35;2.00;;;19.90;82.80;;;20.37;72.85;100942.72;5226107;28;20086;-54
2022/10/10 09:02:44;;;;;;;3.60;1.80;;;19.80;83.20;;;20.28;73.43;100939.22;5225106;28;20534;-54
2022/10/10 09:05:20;;;;;;;5.63;2.33;;;19.70;83.90;;;20.14;73.36;100935.69;5224214;28;20052;-54
2022/10/10 09:08:12;;;;;;;3.17;1.83;;;19.60;83.90;;;19.97;74.37;100934.84;5226461;28;20045;-54
2022/10/10 09:10:55;;;;;;;4.72;1.52;;;19.50;84.80;;;19.94;75.25;100943.66;5225754;28;20041;-53
2022/10/10 09:13:37;;;;;;;2.70;1.73;;;19.40;85.70;;;19.99;75.96;100948.97;5226591;28;20048;-54
2022/10/10 09:16:23;;;;;;;4.00;1.73;;;19.40;86.60;;;20.13;76.48;100941.00;5226230;28;20505;-53
2022/10/10 09:19:06;;;;;;;5.22;1.77;;;19.50;87.40;;;20.36;74.81;100955.06;5225791;28;20501;-54
2022/10/10 09:21:41;;;;;;;6.18;2.50;;;19.70;86.40;;;20.56;74.86;100957.69;5225994;28;20187;-54
2022/10/10 09:24:20;;;;;;;3.42;1.73;;;19.80;86.60;;;20.70;74.42;100941.72;5226156;28;20056;-53
2022/10/10 09:26:59;;;;;;;7.93;2.30;;;19.90;86.40;;;20.71;73.34;100944.38;5226035;28;20063;-54
2022/10/10 09:29:38;;;;;;;4.18;1.98;;;20.10;85.20;;;20.77;74.15;100936.41;5225570;28;20036;-53
2022/10/10 09:32:14;;;;;;;3.83;2.10;;;20.10;85.70;;;20.84;74.17;100946.06;5225884;28;20081;-53
2022/10/10 09:34:49;;;;;;;6.63;2.33;;;20.20;85.90;;;20.84;73.38;100938.13;5226299;28;20045;-53
2022/10/10 09:37:25;;;;;;;6.00;2.05;;;20.20;84.90;;;20.90;73.57;100949.59;5225730;28;20052;-54
2022/10/10 09:40:03;;;;;;;4.35;1.85;;;20.20;85.10;;;21.00;74.27;100953.97;5225524;28;20539;-53
2022/10/10 09:42:39;;;;;;;3.80;1.70;;;20.30;85.80;;;21.10;73.54;100953.00;5225524;28;20049;-53
2022/10/10 09:45:20;;;;;;;5.00;2.00;;;20.40;85.20;;;21.12;73.97;100948.56;5207788;28;20048;-54
2022/10/10 09:47:55;;;;;;;3.75;2.22;;;20.40;85.60;;;21.02;73.58;100946.88;5225405;28;20471;-54
2022/10/10 09:50:27;;;;;;;4.72;1.98;;;20.40;84.90;;;21.04;73.90;100939.78;5225312;28;20045;-53
2022/10/10 09:52:59;;;;;;;3.55;1.80;;;20.40;85.20;;;21.17;74.66;100943.25;5223809;28;20072;-53
2022/10/10 09:55:36;;;;;;;4.25;2.00;;;20.50;86.00;;;21.29;73.93;100948.50;5225621;28;20478;-53
2022/10/10 09:58:17;;;;;;;6.82;2.35;;;20.60;85.60;;;21.28;74.11;100952.94;5207324;28;20456;-54
2022/10/10 10:00:52;;;;;;;9.27;2.22;;;20.60;85.70;;;21.30;72.81;100956.44;5225062;28;20064;-54
2022/10/10 10:03:24;;;;;;;3.72;2.13;;;20.70;84.30;;;21.31;74.20;100958.19;5225295;28;20080;-54
2022/10/10 10:06:00;;;;;;;3.03;1.73;;;20.70;85.30;;;21.36;74.37;100966.13;5225359;28;20048;-54
2022/10/10 10:08:34;;;;;;;6.63;2.25;;;20.70;85.50;;;21.24;73.65;100958.22;5222421;28;20052;-54
2022/10/10 10:11:22;;;;;;;4.65;2.03;;;20.70;84.50;;;21.27;74.69;100951.13;5224939;28;20032;-54
2022/10/10 10:13:58;;;;;;;3.35;2.08;;;20.70;85.60;;;21.31;74.51;100946.72;5204611;28;20054;-54
2022/10/10 10:16:34;;;;;;;5.57;1.85;;;20.70;85.50;;;21.42;74.09;100949.31;5224251;28;20056;-53
2022/10/10 10:19:31;;;;;;;3.88;1.67;;;20.70;85.20;;;21.53;74.27;100963.38;5224415;28;20052;-53
2022/10/10 10:22:04;;;;;;;4.68;1.90;;;20.80;85.50;;;21.51;73.40;100962.47;5225014;28;20045;-53
2022/10/10 10:24:36;;;;;;;3.35;2.22;;;20.80;84.50;;;21.46;73.88;100959.88;5223758;28;20041;-53
2022/10/10 10:27:13;;;;;;;5.70;1.90;;;20.80;84.90;;;21.34;73.73;100949.34;5224846;28;20123;-54
2022/10/10 10:29:48;;;;;;;3.97;1.92;;;20.70;84.60;;;21.14;74.13;100957.41;5224265;28;20056;-54
2022/10/10 10:32:43;;;;;;;3.28;1.58;;;20.60;85.40;;;21.11;75.71;100965.34;5224776;28;20052;-54
2022/10/10 10:35:24;;;;;;;3.47;1.70;;;20.60;86.10;;;21.16;76.18;100963.56;5206927;28;20049;-54
2022/10/10 10:38:29;;;;;;;5.95;1.63;;;20.50;86.80;;;21.20;75.88;100961.78;5224724;28;20044;-54
2022/10/10 10:41:09;;;;;;;3.13;1.70;;;20.60;86.70;;;21.24;76.31;100967.03;5224703;28;20441;-54
2022/10/10 10:44:22;;;;;;;4.32;1.83;;;20.60;87.10;;;20.93;75.78;100963.72;5224794;28;20124;-53
2022/10/10 10:47:11;;;;;;;3.25;1.70;;;20.40;86.10;;;20.79;76.74;100966.41;5204433;28;20454;-54
2022/10/10 10:49:59;;;;;;;3.70;1.60;;;20.30;87.10;;;20.89;76.66;100961.06;5224291;28;20048;-53
2022/10/10 10:52:57;;;;;;;3.35;1.88;;;20.30;87.30;;;20.95;76.83;100953.97;5224480;28;20049;-54
2022/10/10 10:55:39;;;;;;;3.40;1.70;;;20.40;87.60;;;20.94;76.90;100962.81;5224491;28;20056;-53